createdAt,value
2023-01-30T00:01:45.616Z,-2.95
2023-01-30T00:04:16.040Z,-2.95
2023-01-30T00:06:44.037Z,-2.95
2023-01-30T00:09:18.509Z,-2.96
2023-01-30T00:11:45.274Z,-2.98
2023-01-30T00:14:12.064Z,-3.01
2023-01-30T00:16:39.009Z,-3.05
2023-01-30T00:19:05.831Z,-3.11
2023-01-30T00:21:32.574Z,-3.16
2023-01-30T00:24:01.172Z,-3.19
2023-01-30T00:26:27.963Z,-3.22
2023-01-30T00:28:54.741Z,-3.24
2023-01-30T00:31:21.994Z,-3.25
2023-01-30T00:33:48.886Z,-3.26
2023-01-30T00:36:15.671Z,-3.25
2023-01-30T00:38:42.485Z,-3.24
2023-01-30T00:41:10.990Z,-3.21
2023-01-30T00:43:51.746Z,-3.18
2023-01-30T00:46:45.238Z,-3.14
2023-01-30T00:49:12.391Z,-3.09
2023-01-30T00:51:39.350Z,-3.04
2023-01-30T00:54:06.259Z,-2.99
2023-01-30T00:56:33.014Z,-2.94
2023-01-30T00:58:59.816Z,-2.90
2023-01-30T01:01:26.893Z,-2.86
2023-01-30T01:03:53.671Z,-2.83
2023-01-30T01:06:20.453Z,-2.82
2023-01-30T01:08:47.234Z,-2.82
2023-01-30T01:11:24.633Z,-2.82
2023-01-30T01:13:53.738Z,-2.84
2023-01-30T01:16:21.718Z,-2.85
2023-01-30T01:18:48.996Z,-2.86
2023-01-30T01:21:15.964Z,-2.87
2023-01-30T01:23:42.979Z,-2.88
2023-01-30T01:26:10.627Z,-2.89
2023-01-30T01:28:37.441Z,-2.91
2023-01-30T01:31:12.187Z,-2.93
2023-01-30T01:33:39.491Z,-2.96
2023-01-30T01:36:07.656Z,-3.00
2023-01-30T01:38:35.098Z,-3.05
2023-01-30T01:41:02.026Z,-3.12
2023-01-30T01:43:32.894Z,-3.19
2023-01-30T01:46:10.302Z,-3.26
2023-01-30T01:48:45.092Z,-3.34
2023-01-30T01:51:34.914Z,-3.41
2023-01-30T01:54:24.736Z,-3.51
2023-01-30T01:56:52.028Z,-3.60
2023-01-30T01:59:32.215Z,-3.67
2023-01-30T02:02:02.170Z,-3.73
2023-01-30T02:04:45.429Z,-3.78
2023-01-30T02:07:12.386Z,-3.83
2023-01-30T02:09:39.240Z,-3.88
2023-01-30T02:12:06.181Z,-3.92
2023-01-30T02:14:34.597Z,-3.98
2023-01-30T02:17:01.387Z,-4.03
2023-01-30T02:19:41.062Z,-4.07
2023-01-30T02:22:40.899Z,-4.12
2023-01-30T02:25:10.225Z,-4.18
2023-01-30T02:27:42.205Z,-4.23
2023-01-30T02:30:37.774Z,-4.26
2023-01-30T02:33:20.884Z,-4.30
2023-01-30T02:36:24.754Z,-4.34
2023-01-30T02:39:09.002Z,-4.37
2023-01-30T02:41:35.732Z,-4.40
2023-01-30T02:44:12.639Z,-4.42
2023-01-30T02:46:44.242Z,-4.44
2023-01-30T02:49:20.798Z,-4.48
2023-01-30T02:51:50.384Z,-4.52
2023-01-30T02:54:17.518Z,-4.53
2023-01-30T02:56:52.770Z,-4.55
2023-01-30T02:59:32.119Z,-4.56
2023-01-30T03:02:15.881Z,-4.56
2023-01-30T03:04:48.503Z,-4.56
2023-01-30T03:07:31.954Z,-4.56
2023-01-30T03:10:11.367Z,-4.56
2023-01-30T03:12:50.280Z,-4.56
2023-01-30T03:15:21.827Z,-4.56
2023-01-30T03:17:49.238Z,-4.55
2023-01-30T03:20:19.184Z,-4.54
2023-01-30T03:22:45.919Z,-4.53
2023-01-30T03:25:21.904Z,-4.52
2023-01-30T03:27:51.690Z,-4.51
2023-01-30T03:30:18.841Z,-4.49
2023-01-30T03:32:45.886Z,-4.47
2023-01-30T03:35:13.099Z,-4.46
2023-01-30T03:37:39.926Z,-4.44
2023-01-30T03:40:07.610Z,-4.42
2023-01-30T03:42:34.376Z,-4.41
2023-01-30T03:45:01.185Z,-4.39
2023-01-30T03:47:28.207Z,-4.37
2023-01-30T03:49:54.912Z,-4.34
2023-01-30T03:52:21.918Z,-4.32
2023-01-30T03:54:48.653Z,-4.31
2023-01-30T03:57:15.431Z,-4.29
2023-01-30T03:59:42.209Z,-4.27
2023-01-30T04:02:09.077Z,-4.25
2023-01-30T04:04:35.982Z,-4.24
2023-01-30T04:07:02.815Z,-4.23
2023-01-30T04:09:29.597Z,-4.23
2023-01-30T04:11:56.470Z,-4.22
2023-01-30T04:14:23.247Z,-4.22
2023-01-30T04:16:50.069Z,-4.21
2023-01-30T04:19:16.916Z,-4.20
2023-01-30T04:21:43.767Z,-4.21
2023-01-30T04:24:10.551Z,-4.21
2023-01-30T04:26:37.342Z,-4.22
2023-01-30T04:29:04.173Z,-4.24
2023-01-30T04:31:31.029Z,-4.25
2023-01-30T04:33:57.846Z,-4.26
2023-01-30T04:36:24.981Z,-4.28
2023-01-30T04:38:51.805Z,-4.28
2023-01-30T04:41:18.556Z,-4.29
2023-01-30T04:43:45.360Z,-4.29
2023-01-30T04:46:12.171Z,-4.27
2023-01-30T04:48:40.203Z,-4.26
2023-01-30T04:51:07.199Z,-4.25
2023-01-30T04:53:34.121Z,-4.23
2023-01-30T04:56:01.007Z,-4.21
2023-01-30T04:58:27.726Z,-4.20
2023-01-30T05:00:54.573Z,-4.19
2023-01-30T05:03:21.463Z,-4.17
2023-01-30T05:05:48.817Z,-4.16
2023-01-30T05:08:16.231Z,-4.14
2023-01-30T05:10:42.983Z,-4.12
2023-01-30T05:13:09.765Z,-4.11
2023-01-30T05:15:36.522Z,-4.09
2023-01-30T05:18:03.515Z,-4.08
2023-01-30T05:20:30.344Z,-4.07
2023-01-30T05:22:57.103Z,-4.07
2023-01-30T05:25:23.900Z,-4.06
2023-01-30T05:27:50.594Z,-4.04
2023-01-30T05:30:17.761Z,-4.02
2023-01-30T05:32:44.590Z,-3.99
2023-01-30T05:35:11.376Z,-3.98
2023-01-30T05:37:38.180Z,-3.97
2023-01-30T05:40:06.419Z,-3.96
2023-01-30T05:42:33.404Z,-3.94
2023-01-30T05:45:00.264Z,-3.93
2023-01-30T05:47:27.164Z,-3.90
2023-01-30T05:49:53.950Z,-3.88
2023-01-30T05:52:20.746Z,-3.85
2023-01-30T05:54:51.194Z,-3.84
2023-01-30T05:57:17.964Z,-3.83
2023-01-30T05:59:44.762Z,-3.82
2023-01-30T06:02:12.139Z,-3.81
2023-01-30T06:04:39.005Z,-3.79
2023-01-30T06:07:05.816Z,-3.77
2023-01-30T06:09:32.628Z,-3.76
2023-01-30T06:11:59.326Z,-3.72
2023-01-30T06:14:26.061Z,-3.69
2023-01-30T06:16:53.117Z,-3.66
2023-01-30T06:19:20.179Z,-3.62
2023-01-30T06:21:46.946Z,-3.60
2023-01-30T06:24:13.812Z,-3.58
2023-01-30T06:26:40.629Z,-3.57
2023-01-30T06:29:07.419Z,-3.57
2023-01-30T06:31:34.234Z,-3.56
2023-01-30T06:34:01.002Z,-3.56
2023-01-30T06:36:27.899Z,-3.55
2023-01-30T06:38:55.267Z,-3.54
2023-01-30T06:41:22.047Z,-3.54
2023-01-30T06:43:48.937Z,-3.52
2023-01-30T06:46:15.806Z,-3.49
2023-01-30T06:48:42.647Z,-3.44
2023-01-30T06:51:09.437Z,-3.38
2023-01-30T06:53:36.315Z,-3.32
2023-01-30T06:56:03.121Z,-3.26
2023-01-30T06:58:30.074Z,-3.19
2023-01-30T07:00:57.509Z,-3.14
2023-01-30T07:03:24.752Z,-3.07
2023-01-30T07:05:51.716Z,-3.02
2023-01-30T07:08:18.843Z,-2.97
2023-01-30T07:10:45.729Z,-2.93
2023-01-30T07:13:13.423Z,-2.90
2023-01-30T07:15:41.141Z,-2.86
2023-01-30T07:18:08.290Z,-2.81
2023-01-30T07:20:35.139Z,-2.77
2023-01-30T07:23:02.402Z,-2.71
2023-01-30T07:25:30.254Z,-2.66
2023-01-30T07:28:00.622Z,-2.62
2023-01-30T07:30:30.416Z,-2.57
2023-01-30T07:32:58.057Z,-2.51
2023-01-30T07:35:27.032Z,-2.45
2023-01-30T07:37:53.969Z,-2.37
2023-01-30T07:40:22.189Z,-2.29
2023-01-30T07:43:04.932Z,-2.19
2023-01-30T07:45:45.213Z,-2.11
2023-01-30T07:48:14.675Z,-2.02
2023-01-30T07:50:42.279Z,-1.95
2023-01-30T07:53:13.045Z,-1.86
2023-01-30T07:55:40.524Z,-1.75
2023-01-30T07:58:07.590Z,-1.64
2023-01-30T08:00:34.491Z,-1.53
2023-01-30T08:03:01.676Z,-1.43
2023-01-30T08:05:28.552Z,-1.34
2023-01-30T08:07:57.003Z,-1.26
2023-01-30T08:10:24.145Z,-1.19
2023-01-30T08:12:51.735Z,-1.14
2023-01-30T08:15:18.906Z,-1.09
2023-01-30T08:17:55.382Z,-1.03
2023-01-30T08:20:22.388Z,-0.97
2023-01-30T08:22:49.235Z,-0.92
2023-01-30T08:25:16.261Z,-0.87
2023-01-30T08:27:43.065Z,-0.84
2023-01-30T08:30:12.121Z,-0.80
2023-01-30T08:32:39.004Z,-0.76
2023-01-30T08:35:06.259Z,-0.71
2023-01-30T08:37:33.114Z,-0.63
2023-01-30T08:39:59.976Z,-0.52
2023-01-30T08:42:26.836Z,-0.43
2023-01-30T08:44:53.723Z,-0.38
2023-01-30T08:47:20.532Z,-0.38
2023-01-30T08:49:47.321Z,-0.39
2023-01-30T08:52:14.219Z,-0.38
2023-01-30T08:54:40.988Z,-0.34
2023-01-30T08:57:07.947Z,-0.30
2023-01-30T08:59:34.831Z,-0.24
2023-01-30T09:02:01.665Z,-0.16
2023-01-30T09:04:31.720Z,-0.08
2023-01-30T09:06:58.745Z,0.00
2023-01-30T09:09:25.564Z,0.12
2023-01-30T09:11:52.623Z,0.24
2023-01-30T09:14:20.032Z,0.37
2023-01-30T09:16:48.312Z,0.49
2023-01-30T09:19:15.400Z,0.61
2023-01-30T09:21:42.767Z,0.73
2023-01-30T09:24:09.528Z,0.82
2023-01-30T09:26:36.367Z,0.94
2023-01-30T09:29:03.244Z,1.08
2023-01-30T09:31:30.059Z,1.20
2023-01-30T09:33:56.979Z,1.31
2023-01-30T09:36:23.714Z,1.36
2023-01-30T09:38:50.461Z,1.40
2023-01-30T09:41:35.664Z,1.41
2023-01-30T09:44:18.253Z,1.45
2023-01-30T09:47:01.025Z,1.47
2023-01-30T09:49:37.568Z,1.52
2023-01-30T09:52:18.300Z,1.56
2023-01-30T09:54:46.302Z,1.56
2023-01-30T09:57:25.948Z,1.52
2023-01-30T10:00:14.028Z,1.49
2023-01-30T10:03:21.365Z,1.45
2023-01-30T10:06:11.554Z,1.39
2023-01-30T10:08:55.731Z,1.33
2023-01-30T10:11:42.679Z,1.27
2023-01-30T10:14:26.011Z,1.24
2023-01-30T10:17:01.341Z,1.22
2023-01-30T10:19:35.728Z,1.19
2023-01-30T10:22:13.250Z,1.17
2023-01-30T10:24:52.328Z,1.18
2023-01-30T10:27:21.350Z,1.18
2023-01-30T10:29:57.208Z,1.21
2023-01-30T10:32:30.677Z,1.27
2023-01-30T10:35:20.386Z,1.34
2023-01-30T10:38:01.149Z,1.43
2023-01-30T10:40:41.026Z,1.52
2023-01-30T10:43:21.557Z,1.59
2023-01-30T10:45:57.002Z,1.65
2023-01-30T10:48:49.688Z,1.68
2023-01-30T10:51:25.979Z,1.69
2023-01-30T10:54:03.484Z,1.70
2023-01-30T10:56:44.100Z,1.73
2023-01-30T10:59:31.321Z,1.76
2023-01-30T11:02:26.931Z,1.77
2023-01-30T11:04:59.523Z,1.76
2023-01-30T11:07:31.051Z,1.74
2023-01-30T11:09:58.862Z,1.72
2023-01-30T11:12:26.421Z,1.71
2023-01-30T11:15:01.321Z,1.69
2023-01-30T11:17:35.897Z,1.68
2023-01-30T11:20:17.567Z,1.67
2023-01-30T11:23:24.865Z,1.67
2023-01-30T11:26:10.117Z,1.69
2023-01-30T11:28:44.182Z,1.71
2023-01-30T11:31:31.514Z,1.71
2023-01-30T11:34:16.075Z,1.73
2023-01-30T11:36:42.955Z,1.78
2023-01-30T11:39:12.703Z,1.87
2023-01-30T11:41:44.575Z,1.95
2023-01-30T11:44:11.799Z,2.05
2023-01-30T11:46:40.993Z,2.11
2023-01-30T11:49:46.899Z,2.13
2023-01-30T11:52:10.607Z,2.16
2023-01-30T11:54:44.579Z,2.20
2023-01-30T11:57:14.743Z,2.23
2023-01-30T11:59:47.992Z,2.26
2023-01-30T12:02:21.662Z,2.27
2023-01-30T12:04:54.080Z,2.26
2023-01-30T12:07:26.341Z,2.28
2023-01-30T12:09:54.269Z,2.26
2023-01-30T12:12:27.032Z,2.17
2023-01-30T12:14:58.126Z,2.08
2023-01-30T12:17:38.794Z,1.98
2023-01-30T12:20:20.238Z,1.92
2023-01-30T12:23:00.596Z,1.86
2023-01-30T12:25:41.357Z,1.80
2023-01-30T12:28:45.290Z,1.79
2023-01-30T12:31:21.239Z,1.82
2023-01-30T12:33:49.326Z,1.84
2023-01-30T12:36:35.965Z,1.85
2023-01-30T12:39:14.514Z,1.86
2023-01-30T12:42:01.133Z,1.82
2023-01-30T12:44:57.927Z,1.75
2023-01-30T12:47:46.303Z,1.69
2023-01-30T12:50:36.954Z,1.63
2023-01-30T12:53:06.601Z,1.56
2023-01-30T12:55:53.276Z,1.51
2023-01-30T12:58:28.714Z,1.49
2023-01-30T13:01:15.343Z,1.49
2023-01-30T13:04:08.887Z,1.51
2023-01-30T13:06:59.641Z,1.50
2023-01-30T13:10:10.055Z,1.55
2023-01-30T13:12:59.761Z,1.60
2023-01-30T13:15:42.327Z,1.63
2023-01-30T13:18:16.225Z,1.67
2023-01-30T13:21:00.572Z,1.71
2023-01-30T13:23:36.942Z,1.72
2023-01-30T13:26:14.117Z,1.70
2023-01-30T13:28:53.564Z,1.71
2023-01-30T13:31:24.810Z,1.72
2023-01-30T13:34:07.220Z,1.72
2023-01-30T13:36:39.873Z,1.68
2023-01-30T13:39:15.592Z,1.63
2023-01-30T13:41:48.854Z,1.59
2023-01-30T13:44:32.013Z,1.55
2023-01-30T13:47:23.049Z,1.53
2023-01-30T13:49:49.790Z,1.48
2023-01-30T13:52:22.602Z,1.46
2023-01-30T13:54:55.206Z,1.44
2023-01-30T13:57:29.767Z,1.42
2023-01-30T14:00:26.124Z,1.42
2023-01-30T14:03:23.106Z,1.41
2023-01-30T14:05:57.438Z,1.43
2023-01-30T14:08:27.086Z,1.44
2023-01-30T14:10:56.341Z,1.47
2023-01-30T14:13:25.599Z,1.49
2023-01-30T14:16:02.586Z,1.50
2023-01-30T14:18:38.872Z,1.52
2023-01-30T14:21:22.677Z,1.55
2023-01-30T14:24:01.909Z,1.56
2023-01-30T14:27:00.566Z,1.54
2023-01-30T14:29:41.599Z,1.50
2023-01-30T14:32:14.528Z,1.46
2023-01-30T14:34:43.485Z,1.39
2023-01-30T14:37:38.095Z,1.35
2023-01-30T14:40:27.509Z,1.31
2023-01-30T14:43:16.975Z,1.28
2023-01-30T14:46:03.299Z,1.24
2023-01-30T14:48:53.565Z,1.23
2023-01-30T14:51:40.173Z,1.24
2023-01-30T14:54:13.527Z,1.25
2023-01-30T14:56:45.543Z,1.28
2023-01-30T14:59:18.142Z,1.30
2023-01-30T15:01:58.905Z,1.33
2023-01-30T15:04:45.648Z,1.35
2023-01-30T15:07:18.721Z,1.36
2023-01-30T15:09:58.811Z,1.37
2023-01-30T15:12:28.448Z,1.37
2023-01-30T15:15:01.316Z,1.37
2023-01-30T15:17:58.233Z,1.36
2023-01-30T15:20:57.789Z,1.33
2023-01-30T15:23:41.403Z,1.28
2023-01-30T15:26:21.883Z,1.25
2023-01-30T15:29:15.540Z,1.21
2023-01-30T15:31:59.596Z,1.18
2023-01-30T15:34:31.673Z,1.16
2023-01-30T15:36:58.775Z,1.14
2023-01-30T15:39:29.283Z,1.14
2023-01-30T15:42:05.542Z,1.16
2023-01-30T15:44:52.264Z,1.18
2023-01-30T15:47:24.625Z,1.20
2023-01-30T15:50:03.325Z,1.23
2023-01-30T15:52:46.540Z,1.24
2023-01-30T15:55:23.980Z,1.25
2023-01-30T15:57:57.124Z,1.26
2023-01-30T16:00:33.482Z,1.25
2023-01-30T16:03:02.446Z,1.25
2023-01-30T16:05:29.551Z,1.23
2023-01-30T16:07:59.106Z,1.22
2023-01-30T16:10:30.512Z,1.20
2023-01-30T16:12:58.669Z,1.18
2023-01-30T16:15:33.304Z,1.16
2023-01-30T16:18:07.602Z,1.15
2023-01-30T16:21:00.281Z,1.13
2023-01-30T16:23:30.110Z,1.13
2023-01-30T16:25:57.558Z,1.15
2023-01-30T16:28:26.434Z,1.17
2023-01-30T16:31:09.102Z,1.20
2023-01-30T16:33:36.814Z,1.24
2023-01-30T16:36:06.421Z,1.27
2023-01-30T16:38:39.779Z,1.31
2023-01-30T16:41:06.674Z,1.34
2023-01-30T16:43:34.429Z,1.36
2023-01-30T16:46:28.375Z,1.36
2023-01-30T16:49:03.614Z,1.35
2023-01-30T16:51:30.775Z,1.34
2023-01-30T16:54:02.341Z,1.33
2023-01-30T16:56:33.295Z,1.32
2023-01-30T16:59:01.880Z,1.30
2023-01-30T17:01:41.515Z,1.29
2023-01-30T17:04:18.926Z,1.26
2023-01-30T17:06:53.240Z,1.27
2023-01-30T17:09:34.948Z,1.28
2023-01-30T17:12:02.168Z,1.29
2023-01-30T17:14:33.051Z,1.31
2023-01-30T17:17:04.883Z,1.33
2023-01-30T17:19:31.778Z,1.37
2023-01-30T17:22:00.099Z,1.40
2023-01-30T17:24:27.150Z,1.43
2023-01-30T17:27:00.311Z,1.44
2023-01-30T17:29:43.681Z,1.46
2023-01-30T17:32:13.837Z,1.47
2023-01-30T17:34:41.595Z,1.48
2023-01-30T17:37:26.642Z,1.49
2023-01-30T17:39:53.507Z,1.49
2023-01-30T17:42:22.440Z,1.50
2023-01-30T17:44:49.861Z,1.50
2023-01-30T17:47:16.912Z,1.51
2023-01-30T17:49:43.992Z,1.55
2023-01-30T17:52:13.737Z,1.58
2023-01-30T17:54:41.019Z,1.64
2023-01-30T17:57:11.992Z,1.68
2023-01-30T17:59:38.781Z,1.74
2023-01-30T18:02:06.910Z,1.79
2023-01-30T18:04:33.701Z,1.84
2023-01-30T18:07:04.840Z,1.87
2023-01-30T18:09:32.188Z,1.90
2023-01-30T18:11:59.127Z,1.93
2023-01-30T18:14:25.878Z,1.94
2023-01-30T18:16:52.949Z,1.96
2023-01-30T18:19:24.049Z,1.95
2023-01-30T18:21:51.160Z,1.96
2023-01-30T18:24:18.613Z,1.96
2023-01-30T18:26:45.958Z,1.96
2023-01-30T18:29:13.452Z,1.95
2023-01-30T18:31:41.159Z,1.94
2023-01-30T18:34:09.998Z,1.94
2023-01-30T18:36:37.844Z,1.93
2023-01-30T18:39:05.944Z,1.94
2023-01-30T18:41:33.123Z,1.95
2023-01-30T18:44:02.530Z,1.98
2023-01-30T18:46:30.459Z,2.01
2023-01-30T18:48:58.133Z,2.04
2023-01-30T18:51:30.082Z,2.08
2023-01-30T18:53:58.356Z,2.12
2023-01-30T18:56:31.695Z,2.13
2023-01-30T18:59:02.735Z,2.16
2023-01-30T19:01:32.441Z,2.16
2023-01-30T19:04:01.357Z,2.16
2023-01-30T19:06:29.512Z,2.16
2023-01-30T19:08:57.290Z,2.15
2023-01-30T19:11:38.056Z,2.14
2023-01-30T19:14:05.319Z,2.12
2023-01-30T19:16:33.642Z,2.10
2023-01-30T19:19:00.919Z,2.09
2023-01-30T19:21:28.406Z,2.08
2023-01-30T19:23:56.462Z,2.08
2023-01-30T19:26:24.824Z,2.09
2023-01-30T19:28:52.323Z,2.12
2023-01-30T19:31:21.230Z,2.15
2023-01-30T19:34:02.781Z,2.20
2023-01-30T19:36:31.938Z,2.24
2023-01-30T19:38:59.918Z,2.27
2023-01-30T19:41:29.428Z,2.32
2023-01-30T19:43:58.557Z,2.35
2023-01-30T19:46:25.798Z,2.35
2023-01-30T19:48:52.934Z,2.35
2023-01-30T19:51:28.035Z,2.36
2023-01-30T19:53:57.615Z,2.36
2023-01-30T19:56:25.722Z,2.34
2023-01-30T19:58:55.123Z,2.32
2023-01-30T20:01:24.179Z,2.31
2023-01-30T20:03:51.314Z,2.29
2023-01-30T20:06:27.940Z,2.27
2023-01-30T20:09:00.099Z,2.25
2023-01-30T20:11:27.844Z,2.24
2023-01-30T20:13:54.926Z,2.23
2023-01-30T20:16:25.580Z,2.23
2023-01-30T20:19:00.983Z,2.24
2023-01-30T20:21:29.649Z,2.26
2023-01-30T20:23:57.291Z,2.29
2023-01-30T20:26:28.289Z,2.33
2023-01-30T20:28:56.265Z,2.35
2023-01-30T20:31:25.605Z,2.37
2023-01-30T20:33:55.839Z,2.40
2023-01-30T20:36:23.316Z,2.40
2023-01-30T20:38:50.692Z,2.41
2023-01-30T20:41:22.587Z,2.41
2023-01-30T20:43:52.475Z,2.40
2023-01-30T20:46:21.005Z,2.39
2023-01-30T20:48:48.817Z,2.37
2023-01-30T20:51:18.479Z,2.35
2023-01-30T20:53:54.010Z,2.34
2023-01-30T20:56:22.488Z,2.32
2023-01-30T20:58:49.701Z,2.32
2023-01-30T21:01:18.935Z,2.34
2023-01-30T21:03:50.718Z,2.36
2023-01-30T21:06:42.976Z,2.38
2023-01-30T21:09:08.193Z,2.42
2023-01-30T21:11:35.479Z,2.45
2023-01-30T21:14:02.304Z,2.46
2023-01-30T21:16:31.067Z,2.46
2023-01-30T21:19:04.236Z,2.46
2023-01-30T21:21:38.185Z,2.46
2023-01-30T21:24:08.577Z,2.45
2023-01-30T21:26:38.026Z,2.42
2023-01-30T21:29:07.236Z,2.39
2023-01-30T21:31:36.022Z,2.35
2023-01-30T21:34:03.606Z,2.30
2023-01-30T21:36:31.480Z,2.28
2023-01-30T21:39:12.195Z,2.27
2023-01-30T21:41:55.757Z,2.25
2023-01-30T21:44:37.159Z,2.25
2023-01-30T21:47:05.963Z,2.27
2023-01-30T21:49:33.346Z,2.28
2023-01-30T21:52:00.226Z,2.30
2023-01-30T21:54:27.179Z,2.29
2023-01-30T21:56:53.963Z,2.29
2023-01-30T21:59:20.799Z,2.28
2023-01-30T22:01:48.755Z,2.27
2023-01-30T22:04:16.224Z,2.25
2023-01-30T22:06:44.110Z,2.22
2023-01-30T22:09:15.481Z,2.19
2023-01-30T22:11:43.030Z,2.19
2023-01-30T22:14:13.446Z,2.19
2023-01-30T22:16:41.160Z,2.21
2023-01-30T22:19:08.478Z,2.22
2023-01-30T22:21:40.501Z,2.22
2023-01-30T22:24:09.353Z,2.23
2023-01-30T22:26:36.670Z,2.22
2023-01-30T22:29:05.378Z,2.20
2023-01-30T22:31:35.073Z,2.17
2023-01-30T22:34:03.514Z,2.14
2023-01-30T22:36:33.391Z,2.09
2023-01-30T22:39:00.099Z,2.05
2023-01-30T22:41:28.374Z,2.01
2023-01-30T22:43:59.699Z,1.97
2023-01-30T22:46:30.180Z,1.94
2023-01-30T22:48:58.440Z,1.94
2023-01-30T22:51:30.167Z,1.96
2023-01-30T22:54:00.759Z,1.98
2023-01-30T22:56:37.035Z,2.00
2023-01-30T22:59:04.821Z,2.02
2023-01-30T23:01:34.646Z,2.06
2023-01-30T23:04:03.169Z,2.09
2023-01-30T23:06:31.558Z,2.11
2023-01-30T23:09:00.007Z,2.11
2023-01-30T23:11:41.909Z,2.11
2023-01-30T23:14:11.630Z,2.11
2023-01-30T23:16:40.620Z,2.10
2023-01-30T23:19:08.772Z,2.10
2023-01-30T23:21:41.839Z,2.08
2023-01-30T23:24:15.047Z,2.05
2023-01-30T23:26:45.386Z,2.00
2023-01-30T23:29:15.027Z,1.95
2023-01-30T23:31:43.421Z,1.93
2023-01-30T23:34:19.630Z,1.92
2023-01-30T23:36:46.985Z,1.92
2023-01-30T23:39:14.677Z,1.94
2023-01-30T23:41:42.656Z,1.96
2023-01-30T23:44:09.984Z,2.00
2023-01-30T23:46:41.946Z,2.04
2023-01-30T23:49:11.656Z,2.07
2023-01-30T23:51:40.820Z,2.11
2023-01-30T23:54:08.710Z,2.12
2023-01-30T23:56:37.689Z,2.12
2023-01-30T23:59:05.726Z,2.10
